Time;durP1;ratioP1;P1;durP2;ratioP2;P2;SDS_P1;SDS_P2;PMS_P1;PMS_P2;Temp;Humidity;BMP_temperature;BMP_pressure;BME280_temperature;BME280_humidity;BME280_pressure;Samples;Min_cycle;Max_cycle;Signal;HPM_P1;HPM_P2
2021/09/22 00:01:21;;;;;;;3.47;2.30;;;;;;;26.99;47.76;101548.87;144992;565;6002;-84
2021/09/22 00:03:47;;;;;;;3.83;2.60;;;;;;;26.99;47.75;101548.87;144992;692;6002;-82
2021/09/22 00:06:14;;;;;;;3.83;2.60;;;;;;;26.98;47.80;101552.47;144992;669;6002;-87
2021/09/22 00:08:40;;;;;;;4.72;2.87;;;;;;;26.93;47.09;101557.00;144992;569;6002;-84
2021/09/22 00:11:07;;;;;;;4.53;2.42;;;;;;;26.82;47.56;101556.41;144992;584;6002;-84
2021/09/22 00:13:33;;;;;;;4.62;2.70;;;;;;;26.81;47.98;101560.88;144992;569;6002;-83
2021/09/22 00:16:00;;;;;;;7.22;2.22;;;;;;;26.78;47.38;101568.94;144992;596;6002;-81
2021/09/22 00:18:26;;;;;;;4.57;2.50;;;;;;;26.80;48.03;101564.44;144992;569;6002;-83
2021/09/22 00:20:53;;;;;;;3.87;2.28;;;;;;;26.81;47.82;101568.00;144992;579;6002;-83
2021/09/22 00:23:19;;;;;;;3.50;2.90;;;;;;;26.83;47.72;101568.81;144992;570;6002;-83
2021/09/22 00:25:46;;;;;;;3.30;2.58;;;;;;;26.88;47.72;101566.91;144992;578;6002;-81
2021/09/22 00:28:13;;;;;;;4.37;2.35;;;;;;;26.94;47.71;101577.41;144992;573;6002;-82
2021/09/22 00:30:40;;;;;;;2.58;2.35;;;;;;;26.99;47.21;101586.16;144992;592;6002;-83
2021/09/22 00:33:07;;;;;;;4.10;2.70;;;;;;;27.02;47.73;101582.56;144992;577;6002;-81
2021/09/22 00:35:35;;;;;;;4.93;2.78;;;;;;;27.03;47.38;101581.63;144992;581;6002;-82
2021/09/22 00:38:02;;;;;;;3.75;2.60;;;;;;;26.90;47.60;101576.63;144992;752;6002;-82
2021/09/22 00:40:29;;;;;;;3.67;2.60;;;;;;;26.93;48.02;101578.31;144992;913;6002;-82
2021/09/22 00:42:55;;;;;;;4.10;2.55;;;;;;;26.92;48.10;101568.59;144992;614;6002;-85
2021/09/22 00:45:22;;;;;;;4.85;2.28;;;;;;;26.84;47.76;101575.91;144992;588;6002;-79
2021/09/22 00:47:49;;;;;;;4.00;2.35;;;;;;;26.70;47.44;101569.13;144992;563;6002;-79
2021/09/22 00:50:15;;;;;;;3.08;2.10;;;;;;;26.70;47.79;101560.25;144992;567;6002;-88
2021/09/22 00:52:44;;;;;;;5.82;2.25;;;;;;;26.68;48.08;101559.41;144992;640;6002;-83
2021/09/22 00:55:13;;;;;;;4.65;2.20;;;;;;;26.56;48.20;101557.88;144992;914;6002;-81
2021/09/22 00:57:55;;;;;;;6.05;2.50;;;;;;;26.60;47.77;101554.25;144992;595;6002;-81
2021/09/22 01:00:26;;;;;;;3.40;1.87;;;;;;;26.46;48.33;101551.06;144992;587;6002;-83
2021/09/22 01:02:54;;;;;;;4.90;2.08;;;;;;;26.29;48.34;101541.66;144992;914;6002;-84
2021/09/22 01:05:26;;;;;;;5.12;2.03;;;;;;;26.32;48.71;101536.25;144992;637;6002;-83
2021/09/22 01:07:54;;;;;;;4.57;1.83;;;;;;;26.17;48.47;101541.91;144992;600;6002;-83
2021/09/22 01:10:21;;;;;;;4.10;2.00;;;;;;;26.18;49.21;101543.69;144992;914;6002;-84
2021/09/22 01:12:48;;;;;;;4.32;2.22;;;;;;;26.22;48.58;101540.91;144992;914;6002;-84
2021/09/22 01:15:32;;;;;;;2.97;1.75;;;;;;;26.10;48.79;101542.97;144992;822;6002;-86
2021/09/22 01:18:01;;;;;;;4.73;1.80;;;;;;;26.18;48.38;101543.69;144992;584;6002;-85
2021/09/22 01:20:30;;;;;;;4.07;1.87;;;;;;;26.13;48.08;101540.25;144992;565;6002;-85
2021/09/22 01:22:58;;;;;;;3.25;1.80;;;;;;;26.15;48.47;101544.63;144992;805;6002;-87
2021/09/22 01:25:25;;;;;;;5.57;2.10;;;;;;;26.16;48.81;101542.84;144991;724;6002;-84
2021/09/22 01:28:00;;;;;;;4.43;2.25;;;;;;;26.19;47.96;101543.66;144992;692;6002;-83
2021/09/22 01:30:28;;;;;;;4.85;2.03;;;;;;;25.99;48.22;101545.87;144992;595;6002;-85
2021/09/22 01:32:58;;;;;;;2.75;1.98;;;;;;;26.00;48.06;101545.84;144992;914;6002;-85
2021/09/22 01:35:25;;;;;;;3.12;2.15;;;;;;;25.88;48.19;101546.06;144992;914;6002;-85
2021/09/22 01:37:52;;;;;;;3.47;2.08;;;;;;;25.83;48.27;101540.81;144992;832;6002;-81
2021/09/22 01:40:19;;;;;;;3.65;1.90;;;;;;;25.69;48.48;101534.91;144992;896;6002;-84
2021/09/22 01:42:46;;;;;;;3.17;2.20;;;;;;;25.49;48.95;101522.03;144992;911;6002;-84
2021/09/22 01:45:15;;;;;;;2.92;2.00;;;;;;;25.47;48.43;101521.22;144992;913;6002;-86
2021/09/22 01:47:41;;;;;;;4.28;1.77;;;;;;;25.60;48.49;101517.38;144992;575;6002;-84
2021/09/22 01:50:14;;;;;;;2.62;2.22;;;;;;;25.66;49.04;101519.91;144992;914;6002;-85
2021/09/22 01:52:42;;;;;;;2.78;2.00;;;;;;;25.79;48.02;101519.69;144992;914;6002;-84
2021/09/22 01:55:10;;;;;;;3.05;2.00;;;;;;;25.89;48.03;101518.56;144992;914;6011;-82
2021/09/22 01:57:48;;;;;;;4.18;2.10;;;;;;;25.93;47.93;101517.59;144992;914;6002;-83
2021/09/22 02:00:18;;;;;;;2.70;1.80;;;;;;;26.09;47.97;101522.59;144991;588;6002;-82
2021/09/22 02:02:44;;;;;;;3.05;1.95;;;;;;;26.14;47.40;101529.56;144992;611;6002;-81
2021/09/22 02:05:11;;;;;;;2.72;1.95;;;;;;;26.12;47.44;101526.09;144992;637;6002;-83
2021/09/22 02:07:37;;;;;;;3.17;1.90;;;;;;;26.08;47.86;101521.72;144992;914;6002;-85
2021/09/22 02:10:06;;;;;;;2.67;2.05;;;;;;;25.95;47.90;101523.75;144992;914;6002;-83
2021/09/22 02:12:33;;;;;;;2.20;2.00;;;;;;;25.83;48.42;101527.53;144992;915;6002;-82
2021/09/22 02:15:00;;;;;;;4.90;2.10;;;;;;;25.77;48.13;101526.78;144992;569;6002;-84
2021/09/22 02:17:26;;;;;;;3.58;2.20;;;;;;;25.70;48.44;101523.38;144992;855;6002;-81
2021/09/22 02:19:53;;;;;;;3.03;2.10;;;;;;;25.57;51.06;101528.06;144992;580;6002;-83
2021/09/22 02:22:19;;;;;;;3.95;2.22;;;;;;;25.51;49.75;101525.53;144992;574;6002;-86
2021/09/22 02:24:46;;;;;;;4.32;2.10;;;;;;;25.53;49.60;101526.38;144992;563;6002;-84
2021/09/22 02:27:14;;;;;;;2.72;2.30;;;;;;;25.55;49.23;101531.66;144992;915;6002;-85
2021/09/22 02:29:42;;;;;;;2.72;2.08;;;;;;;25.51;50.59;101538.81;144992;915;6002;-84
2021/09/22 02:32:09;;;;;;;4.47;2.22;;;;;;;25.46;49.62;101538.06;144992;564;6002;-84
2021/09/22 02:34:37;;;;;;;3.03;2.30;;;;;;;25.48;49.55;101541.53;144992;573;6003;-83
2021/09/22 02:37:05;;;;;;;2.90;1.92;;;;;;;25.48;50.10;101542.41;144992;915;6002;-84
2021/09/22 02:39:32;;;;;;;2.78;2.12;;;;;;;25.54;49.65;101533.47;144992;875;6002;-86
2021/09/22 02:41:59;;;;;;;3.40;2.17;;;;;;;25.58;49.48;101537.81;144993;566;6002;-84
2021/09/22 02:44:26;;;;;;;4.35;2.10;;;;;;;25.59;49.77;101544.88;144993;915;6002;-84
2021/09/22 02:46:52;;;;;;;5.20;2.33;;;;;;;25.61;50.08;101545.72;144993;733;6002;-84
2021/09/22 02:49:20;;;;;;;3.20;1.85;;;;;;;25.62;49.58;101536.84;144993;611;6002;-81
2021/09/22 02:51:47;;;;;;;2.90;2.20;;;;;;;25.56;49.69;101536.09;144993;915;6002;-84
2021/09/22 02:54:14;;;;;;;4.12;2.15;;;;;;;25.56;50.27;101531.63;144993;774;6002;-83
2021/09/22 02:56:40;;;;;;;3.22;2.25;;;;;;;25.59;49.85;101538.69;144993;914;6002;-83
2021/09/22 02:59:07;;;;;;;3.22;2.10;;;;;;;25.63;50.07;101527.09;144993;841;6002;-83
2021/09/22 03:01:34;;;;;;;4.15;2.10;;;;;;;25.64;49.53;101532.37;144993;646;6002;-83
2021/09/22 03:04:01;;;;;;;2.70;1.98;;;;;;;25.68;49.54;101527.88;144993;587;6002;-84
2021/09/22 03:06:28;;;;;;;2.67;1.75;;;;;;;25.71;49.90;101538.44;144993;586;6002;-83
2021/09/22 03:08:54;;;;;;;2.87;2.08;;;;;;;25.74;49.79;101542.81;144993;676;6002;-85
2021/09/22 03:11:21;;;;;;;2.80;1.95;;;;;;;25.70;49.78;101537.53;144993;858;6002;-82
2021/09/22 03:13:48;;;;;;;2.95;1.75;;;;;;;25.67;49.57;101537.59;144992;620;6002;-83
2021/09/22 03:16:14;;;;;;;4.05;1.98;;;;;;;25.70;49.63;101534.03;144992;758;6002;-84
2021/09/22 03:18:40;;;;;;;2.40;2.20;;;;;;;25.74;49.81;101537.47;144992;595;6002;-85
2021/09/22 03:21:07;;;;;;;3.47;2.12;;;;;;;25.81;49.70;101539.13;144992;566;6002;-83
2021/09/22 03:23:34;;;;;;;4.40;2.20;;;;;;;25.83;50.18;101547.94;144992;571;6002;-83
2021/09/22 03:26:00;;;;;;;2.62;2.05;;;;;;;25.86;49.58;101543.41;144992;844;6002;-83
2021/09/22 03:28:27;;;;;;;4.95;2.15;;;;;;;25.87;49.60;101552.31;144993;914;6002;-84
2021/09/22 03:30:53;;;;;;;5.53;2.10;;;;;;;25.87;49.70;101547.84;144993;595;6002;-84
2021/09/22 03:33:20;;;;;;;3.30;2.10;;;;;;;25.88;50.06;101543.38;144993;738;6002;-85
2021/09/22 03:35:46;;;;;;;2.10;1.90;;;;;;;25.88;49.57;101546.94;144993;623;6002;-83
2021/09/22 03:38:13;;;;;;;3.55;2.12;;;;;;;25.86;49.95;101542.56;144993;583;6002;-85
2021/09/22 03:40:41;;;;;;;3.62;2.10;;;;;;;25.78;50.13;101541.84;144993;584;6002;-84
2021/09/22 03:43:08;;;;;;;3.95;2.28;;;;;;;25.70;49.90;101542.88;144993;914;6002;-83
2021/09/22 03:45:36;;;;;;;3.25;2.20;;;;;;;25.68;50.31;101539.38;144993;670;6002;-83
2021/09/22 03:48:03;;;;;;;6.50;2.60;;;;;;;25.60;50.16;101529.81;144993;579;6002;-83
2021/09/22 03:50:30;;;;;;;5.57;2.20;;;;;;;25.58;50.19;101532.50;144993;588;6002;-84
2021/09/22 03:52:56;;;;;;;5.75;2.25;;;;;;;25.52;50.29;101527.31;144993;589;6002;-85
2021/09/22 03:55:23;;;;;;;3.92;2.30;;;;;;;25.45;51.14;101541.59;144993;580;6002;-83
2021/09/22 03:57:49;;;;;;;5.22;2.45;;;;;;;25.36;50.46;101537.34;144993;624;6002;-83
2021/09/22 04:00:16;;;;;;;3.67;2.37;;;;;;;25.30;51.18;101532.16;144993;577;6002;-83
2021/09/22 04:02:43;;;;;;;5.25;2.20;;;;;;;25.32;50.85;101539.16;144993;564;6002;-84
2021/09/22 04:05:10;;;;;;;4.35;2.37;;;;;;;25.37;50.88;101541.75;144993;580;6002;-84
2021/09/22 04:07:36;;;;;;;4.97;2.65;;;;;;;25.45;50.96;101541.59;144993;580;6002;-84
2021/09/22 04:10:04;;;;;;;4.40;2.22;;;;;;;25.52;50.72;101543.25;144993;589;6002;-84
2021/09/22 04:12:31;;;;;;;5.37;2.33;;;;;;;25.58;50.56;101535.16;144993;695;6002;-85
2021/09/22 04:14:58;;;;;;;4.55;2.40;;;;;;;25.64;50.18;101547.44;144993;603;6002;-83
2021/09/22 04:17:24;;;;;;;3.08;2.03;;;;;;;25.70;50.56;101542.00;144993;666;6002;-83
2021/09/22 04:19:51;;;;;;;4.20;2.25;;;;;;;25.75;50.10;101541.91;144993;603;6002;-83
2021/09/22 04:22:17;;;;;;;3.03;2.05;;;;;;;25.79;50.37;101547.12;144994;613;5002;-84
2021/09/22 04:24:44;;;;;;;4.35;2.47;;;;;;;25.84;50.14;101542.59;144994;587;5002;-81
2021/09/22 04:27:10;;;;;;;3.95;2.28;;;;;;;25.86;50.09;101537.25;144994;845;5002;-82
2021/09/22 04:29:37;;;;;;;3.60;2.30;;;;;;;25.89;49.91;101542.50;144994;914;5002;-83
2021/09/22 04:32:04;;;;;;;4.68;2.83;;;;;;;25.87;50.26;101539.88;144994;788;5002;-80
2021/09/22 04:34:31;;;;;;;4.00;2.60;;;;;;;25.90;50.24;101544.25;144994;736;5002;-79
2021/09/22 04:36:57;;;;;;;6.62;3.20;;;;;;;25.89;49.92;101550.47;144994;628;5002;-79
2021/09/22 04:39:24;;;;;;;5.93;2.83;;;;;;;25.89;50.14;101542.50;144994;569;5002;-83
2021/09/22 04:41:50;;;;;;;4.62;3.15;;;;;;;25.89;49.93;101542.50;144994;656;5002;-81
2021/09/22 04:44:16;;;;;;;5.12;3.62;;;;;;;25.92;49.76;101538.91;144994;632;5002;-81
2021/09/22 04:46:43;;;;;;;5.72;3.47;;;;;;;25.86;49.89;101553.19;144993;608;5002;-80
2021/09/22 04:49:10;;;;;;;3.97;3.20;;;;;;;25.83;49.18;101547.94;144994;566;5002;-80
2021/09/22 04:51:37;;;;;;;5.15;3.37;;;;;;;25.78;49.36;101537.41;144994;682;5002;-81
2021/09/22 04:54:03;;;;;;;4.75;3.10;;;;;;;25.64;49.85;101544.78;144994;658;5002;-81
2021/09/22 04:56:30;;;;;;;4.93;2.83;;;;;;;25.62;49.87;101543.94;144994;564;5002;-81
2021/09/22 04:58:56;;;;;;;3.65;2.75;;;;;;;25.63;49.29;101540.38;144994;817;5002;-80
2021/09/22 05:01:23;;;;;;;4.78;3.05;;;;;;;25.66;49.64;101545.59;144994;914;5002;-81
2021/09/22 05:03:52;;;;;;;5.72;4.45;;;;;;;25.71;49.09;101541.09;144994;564;5002;-78
2021/09/22 05:06:33;;;;;;;10.00;5.80;;;;;;;25.83;48.88;101545.28;144994;886;5002;-80
2021/09/22 05:09:01;;;;;;;7.55;3.78;;;;;;;25.97;48.89;101547.69;144994;563;5002;-80
2021/09/22 05:11:27;;;;;;;5.70;3.90;;;;;;;26.08;48.17;101544.81;144994;914;5002;-81
2021/09/22 05:13:54;;;;;;;5.87;4.10;;;;;;;26.16;48.33;101538.37;144994;569;5002;-79
2021/09/22 05:16:20;;;;;;;4.53;3.83;;;;;;;26.17;47.92;101539.25;144994;914;5002;-79
2021/09/22 05:18:47;;;;;;;5.12;3.55;;;;;;;26.15;47.84;101539.31;144994;914;5002;-80
2021/09/22 05:21:14;;;;;;;6.37;3.70;;;;;;;26.17;47.76;101537.50;144994;565;5002;-82
2021/09/22 05:23:40;;;;;;;4.22;3.55;;;;;;;26.21;48.01;101532.97;144994;914;5002;-80
2021/09/22 05:26:07;;;;;;;5.35;3.70;;;;;;;26.21;47.15;101536.50;144994;733;5002;-80
2021/09/22 05:28:33;;;;;;;4.35;3.72;;;;;;;26.24;47.66;101524.91;144994;871;5002;-79
2021/09/22 05:31:00;;;;;;;6.57;3.72;;;;;;;26.29;47.38;101524.81;144994;571;5002;-80
2021/09/22 05:33:26;;;;;;;8.20;4.03;;;;;;;26.35;46.89;101530.00;144994;611;5002;-81
2021/09/22 05:35:52;;;;;;;6.60;4.00;;;;;;;26.39;46.58;101531.66;144994;596;5002;-81
2021/09/22 05:38:19;;;;;;;8.20;4.22;;;;;;;26.43;47.03;101534.22;144994;566;5002;-81
2021/09/22 05:40:45;;;;;;;6.90;3.95;;;;;;;26.49;47.07;101529.69;144994;914;5003;-81
2021/09/22 05:43:12;;;;;;;5.00;3.78;;;;;;;26.54;46.47;101530.44;144994;597;5002;-81
2021/09/22 05:45:38;;;;;;;5.30;4.10;;;;;;;26.58;46.52;101521.44;144994;575;5002;-81
2021/09/22 05:48:05;;;;;;;8.90;5.35;;;;;;;26.62;46.52;101526.66;144994;914;5002;-79
2021/09/22 05:50:33;;;;;;;9.18;4.70;;;;;;;26.42;46.17;101534.25;144994;631;5002;-79
2021/09/22 05:52:59;;;;;;;9.32;5.25;;;;;;;26.37;46.66;101537.00;144994;569;5002;-81
2021/09/22 05:55:26;;;;;;;8.48;4.37;;;;;;;26.39;47.30;101521.00;144994;914;5002;-81
2021/09/22 05:57:52;;;;;;;9.07;5.20;;;;;;;26.46;46.73;101524.44;144994;914;5002;-80
2021/09/22 06:00:19;;;;;;;6.25;4.60;;;;;;;26.53;46.68;101531.34;144994;816;5002;-81
2021/09/22 06:02:45;;;;;;;5.12;4.00;;;;;;;26.55;46.22;101522.41;144994;780;5002;-82
2021/09/22 06:05:11;;;;;;;7.70;6.28;;;;;;;26.64;46.37;101523.97;144994;564;5002;-80
2021/09/22 06:07:38;;;;;;;7.03;4.72;;;;;;;26.65;46.71;101525.75;144994;914;5002;-79
2021/09/22 06:10:05;;;;;;;5.60;4.00;;;;;;;26.64;46.38;101531.94;144994;914;5002;-80
2021/09/22 06:12:32;;;;;;;7.15;3.70;;;;;;;26.48;47.14;101526.13;144994;594;5002;-82
2021/09/22 06:14:58;;;;;;;6.60;3.70;;;;;;;26.38;46.73;101529.94;144994;914;5002;-81
2021/09/22 06:17:25;;;;;;;7.32;3.60;;;;;;;26.36;47.06;101521.97;144994;563;5002;-81
2021/09/22 06:19:51;;;;;;;6.15;3.65;;;;;;;26.18;46.86;101531.25;144994;914;5002;-81
2021/09/22 06:22:24;;;;;;;4.75;3.78;;;;;;;26.09;46.30;101530.56;144994;914;5002;-81
2021/09/22 06:24:51;;;;;;;7.18;4.40;;;;;;;26.04;47.16;101546.63;144994;564;5003;-79
2021/09/22 06:27:18;;;;;;;6.45;4.45;;;;;;;26.12;47.31;101533.16;144994;914;5002;-80
2021/09/22 06:29:45;;;;;;;9.38;5.32;;;;;;;26.00;46.38;101535.19;144994;673;5002;-81
2021/09/22 06:32:11;;;;;;;7.40;5.62;;;;;;;26.18;47.41;101543.69;144994;914;5003;-82
2021/09/22 06:34:38;;;;;;;11.45;5.53;;;;;;;26.27;46.99;101542.63;144994;733;5002;-75
2021/09/22 06:37:04;;;;;;;11.48;6.82;;;;;;;26.28;46.02;101549.66;144994;589;5002;-79
2021/09/22 06:39:31;;;;;;;10.88;5.50;;;;;;;26.29;47.02;101546.09;144994;724;5002;-81
2021/09/22 06:41:57;;;;;;;10.50;6.82;;;;;;;26.49;46.67;101541.19;144994;915;5002;-80
2021/09/22 06:44:24;;;;;;;7.35;5.47;;;;;;;26.31;46.98;101538.94;144994;613;5002;-82
2021/09/22 06:46:50;;;;;;;8.07;4.75;;;;;;;26.37;46.92;101547.66;144994;585;5002;-81
2021/09/22 06:49:17;;;;;;;6.70;4.28;;;;;;;26.46;47.21;101559.03;144994;915;5002;-81
2021/09/22 06:51:43;;;;;;;10.00;5.25;;;;;;;26.52;46.69;101553.53;144994;583;5002;-79
2021/09/22 06:54:10;;;;;;;6.45;5.50;;;;;;;26.59;47.06;101552.50;144994;730;5002;-79
2021/09/22 06:56:36;;;;;;;5.62;4.60;;;;;;;26.62;46.77;101545.31;144994;707;5002;-80
2021/09/22 06:59:03;;;;;;;4.00;3.62;;;;;;;26.70;46.68;101546.94;144994;596;5002;-80
2021/09/22 07:01:29;;;;;;;7.00;3.95;;;;;;;26.79;46.21;101550.25;144994;658;5002;-85
2021/09/22 07:03:55;;;;;;;5.20;3.83;;;;;;;26.92;46.65;101558.81;144994;914;5002;-79
2021/09/22 07:06:22;;;;;;;6.97;4.35;;;;;;;27.03;46.05;101550.56;144994;778;5002;-80
2021/09/22 07:08:48;;;;;;;6.78;3.95;;;;;;;27.02;45.52;101548.78;144994;753;5002;-81
2021/09/22 07:11:15;;;;;;;4.40;2.60;;;;;;;27.00;46.55;101553.28;144994;770;5002;-82
2021/09/22 07:13:41;;;;;;;3.92;3.55;;;;;;;27.05;46.41;101553.19;144994;613;5002;-81
2021/09/22 07:16:10;;;;;;;4.80;4.00;;;;;;;26.99;46.42;101558.66;144994;589;5002;-84
2021/09/22 07:18:37;;;;;;;5.20;3.50;;;;;;;26.83;46.54;101560.84;144993;576;5002;-81
2021/09/22 07:21:05;;;;;;;3.80;3.40;;;;;;;26.68;47.22;101552.31;144994;600;5002;-80
2021/09/22 07:23:31;;;;;;;5.07;3.72;;;;;;;26.56;47.30;101548.09;144994;684;5002;-80
2021/09/22 07:25:58;;;;;;;6.20;4.50;;;;;;;26.23;48.15;101550.66;144994;662;5002;-82
2021/09/22 07:28:24;;;;;;;8.05;4.10;;;;;;;26.23;48.27;101548.00;144993;874;5002;-83
2021/09/22 07:30:51;;;;;;;6.12;3.25;;;;;;;26.20;49.63;101552.50;144994;609;5002;-82
2021/09/22 07:33:20;;;;;;;5.40;3.58;;;;;;;26.47;49.37;101544.78;144994;588;5002;-81
2021/09/22 07:35:47;;;;;;;4.97;3.42;;;;;;;26.35;50.77;101546.84;144994;587;5002;-79
2021/09/22 07:38:14;;;;;;;5.12;3.90;;;;;;;26.39;49.83;101542.31;144994;635;5002;-80
2021/09/22 07:40:41;;;;;;;6.60;3.85;;;;;;;26.24;51.37;101554.19;144994;578;5002;-81
2021/09/22 07:43:07;;;;;;;6.32;3.62;;;;;;;26.25;49.94;101550.62;144994;579;5002;-81
2021/09/22 07:45:34;;;;;;;4.70;2.97;;;;;;;26.20;50.61;101545.41;144994;569;5002;-82
2021/09/22 07:48:00;;;;;;;6.28;3.28;;;;;;;26.24;50.80;101548.87;144994;914;5002;-82
2021/09/22 07:50:27;;;;;;;5.43;2.92;;;;;;;26.30;50.55;101538.09;144994;586;5002;-82
2021/09/22 07:52:54;;;;;;;5.22;2.70;;;;;;;26.27;51.12;101538.16;144994;566;5002;-80
2021/09/22 07:55:20;;;;;;;4.32;2.78;;;;;;;26.32;50.35;101535.37;144994;564;5002;-86
2021/09/22 07:57:48;;;;;;;7.18;3.70;;;;;;;26.22;51.08;101535.59;144994;587;5002;-84
2021/09/22 08:00:17;;;;;;;5.45;3.00;;;;;;;26.12;51.35;101534.06;144994;579;5002;-83
2021/09/22 08:02:43;;;;;;;4.10;2.80;;;;;;;26.04;50.49;101533.34;144994;577;5002;-82
2021/09/22 08:05:11;;;;;;;4.20;2.80;;;;;;;26.03;50.45;101532.47;144994;738;5002;-83
2021/09/22 08:07:37;;;;;;;5.43;2.80;;;;;;;25.95;51.01;101528.19;144994;914;5002;-83
2021/09/22 08:10:05;;;;;;;4.53;3.05;;;;;;;25.98;51.19;101539.69;144993;909;5002;-83
2021/09/22 08:12:32;;;;;;;5.55;3.00;;;;;;;26.04;50.28;101520.94;144994;832;5002;-78
2021/09/22 08:14:59;;;;;;;4.87;2.67;;;;;;;25.61;51.43;101515.59;144994;565;5002;-80
2021/09/22 08:17:26;;;;;;;3.53;2.37;;;;;;;25.52;51.39;101519.31;144994;914;5002;-82
2021/09/22 08:19:52;;;;;;;5.78;2.67;;;;;;;25.69;50.27;101511.87;144994;914;5002;-82
2021/09/22 08:22:19;;;;;;;4.40;2.50;;;;;;;25.79;50.09;101506.38;144994;683;5002;-81
2021/09/22 08:24:46;;;;;;;2.50;2.12;;;;;;;25.88;50.12;101509.72;144994;579;5002;-81
2021/09/22 08:27:13;;;;;;;4.28;2.10;;;;;;;26.14;49.23;101502.97;144994;761;5002;-82
2021/09/22 08:29:40;;;;;;;3.85;2.30;;;;;;;26.16;49.33;101508.25;144994;712;5002;-82
2021/09/22 08:32:06;;;;;;;2.70;1.95;;;;;;;26.19;48.68;101503.72;144994;564;5002;-83
2021/09/22 08:34:33;;;;;;;3.20;1.92;;;;;;;25.92;48.48;101499.88;144994;569;5002;-82
2021/09/22 08:37:00;;;;;;;2.35;1.92;;;;;;;25.98;48.81;101496.25;144993;914;5002;-83
2021/09/22 08:39:33;;;;;;;2.50;1.58;;;;;;;25.95;48.80;101505.13;144994;584;5003;-84
2021/09/22 08:42:00;;;;;;;4.43;2.20;;;;;;;26.13;48.98;101487.91;144994;661;5002;-82
2021/09/22 08:44:27;;;;;;;6.40;2.70;;;;;;;26.10;48.84;101487.97;144994;880;5002;-83
2021/09/22 08:46:54;;;;;;;2.10;1.90;;;;;;;26.27;49.10;101479.59;144994;599;5002;-90
2021/09/22 08:49:21;;;;;;;3.78;2.80;;;;;;;26.02;49.70;101479.28;144994;915;5002;-81
2021/09/22 08:51:48;;;;;;;3.08;2.50;;;;;;;26.24;49.44;101477.87;144994;597;5002;-81
2021/09/22 08:54:15;;;;;;;5.40;2.58;;;;;;;26.49;49.39;101484.44;144994;581;4566;-87
2021/09/22 08:56:43;;;;;;;3.85;2.40;;;;;;;26.40;49.35;101474.88;144994;609;4569;-82
2021/09/22 08:59:10;;;;;;;4.70;2.97;;;;;;;26.38;49.39;101477.56;144994;593;4572;-82
2021/09/22 09:01:37;;;;;;;2.87;2.20;;;;;;;26.20;49.17;101485.97;144993;597;6002;-82
2021/09/22 09:04:16;;;;;;;5.45;2.42;;;;;;;26.10;48.51;101481.78;144992;655;6002;-82
2021/09/22 09:06:43;;;;;;;6.85;2.50;;;;;;;26.03;49.51;101470.41;144992;608;6002;-85
2021/09/22 09:09:10;;;;;;;3.53;2.53;;;;;;;26.01;49.42;101481.09;144992;914;6002;-82
2021/09/22 09:11:40;;;;;;;4.95;2.42;;;;;;;25.85;49.39;101474.31;144992;914;6002;-83
2021/09/22 09:14:09;;;;;;;2.92;2.10;;;;;;;25.82;48.95;101482.34;144992;914;6002;-83
2021/09/22 09:16:39;;;;;;;3.08;2.37;;;;;;;25.68;49.14;101469.38;144992;914;6002;-82
2021/09/22 09:19:18;;;;;;;4.62;2.50;;;;;;;25.62;50.16;101464.19;144992;635;6002;-82
2021/09/22 09:21:59;;;;;;;4.10;2.45;;;;;;;25.77;49.66;101466.53;144992;717;6002;-84
2021/09/22 09:24:43;;;;;;;7.20;3.45;;;;;;;25.89;49.71;101463.56;144992;598;6002;-81
2021/09/22 09:27:36;;;;;;;4.65;2.37;;;;;;;25.76;50.61;101464.75;144992;913;6002;-86
2021/09/22 09:30:17;;;;;;;3.80;2.20;;;;;;;25.59;50.66;101475.75;144992;646;6004;-80
2021/09/22 09:32:43;;;;;;;4.40;2.40;;;;;;;25.72;50.64;101460.41;144992;565;6004;-81
2021/09/22 09:35:19;;;;;;;4.85;2.62;;;;;;;25.88;49.93;101467.16;144991;912;6000;-81
2021/09/22 09:37:48;;;;;;;5.85;2.40;;;;;;;25.82;50.09;101454.00;144992;572;6002;-81
2021/09/22 09:40:35;;;;;;;3.70;2.75;;;;;;;25.75;50.67;101457.69;144992;571;6002;-80
2021/09/22 09:43:07;;;;;;;4.40;2.58;;;;;;;25.89;50.45;101450.28;144992;914;6002;-81
2021/09/22 09:45:42;;;;;;;3.53;2.20;;;;;;;26.06;48.90;101455.25;144992;914;6002;-82
2021/09/22 09:48:14;;;;;;;3.85;2.45;;;;;;;25.76;50.40;101434.66;144992;798;6002;-83
2021/09/22 09:50:46;;;;;;;4.32;2.65;;;;;;;25.83;50.39;101444.22;144992;616;6002;-81
2021/09/22 09:53:42;;;;;;;5.32;2.50;;;;;;;26.04;49.18;101438.47;144992;871;6002;-84
2021/09/22 09:56:18;;;;;;;3.78;2.40;;;;;;;26.04;48.90;101429.59;144992;589;6004;-87
2021/09/22 09:58:49;;;;;;;6.78;2.62;;;;;;;25.99;49.80;101426.16;144992;912;6004;-83
2021/09/22 10:01:18;;;;;;;2.62;2.42;;;;;;;25.92;48.91;101443.16;144992;912;6004;-87
2021/09/22 10:03:46;;;;;;;5.47;2.53;;;;;;;25.68;49.98;101430.37;144992;589;6004;-90
2021/09/22 10:06:14;;;;;;;5.25;2.50;;;;;;;25.64;49.36;101430.47;144992;565;6004;-83
2021/09/22 10:08:41;;;;;;;5.20;2.37;;;;;;;25.84;49.37;101416.72;144992;637;6004;-81
2021/09/22 10:11:07;;;;;;;4.22;2.50;;;;;;;25.93;49.12;101410.31;144992;715;6004;-80
2021/09/22 10:13:36;;;;;;;4.43;1.98;;;;;;;25.71;47.91;101413.47;144992;679;6004;-83
2021/09/22 10:16:04;;;;;;;3.28;2.20;;;;;;;25.91;48.01;101417.47;144992;617;6004;-80
2021/09/22 10:18:31;;;;;;;3.95;2.50;;;;;;;25.77;49.00;101407.13;144992;628;6004;-79
2021/09/22 10:20:57;;;;;;;3.42;2.60;;;;;;;25.90;48.76;101403.28;144992;618;6004;-86
2021/09/22 10:23:25;;;;;;;4.07;2.83;;;;;;;25.90;48.24;101400.63;144992;566;6004;-85
2021/09/22 10:25:53;;;;;;;3.62;2.33;;;;;;;26.00;48.04;101412.81;144992;578;6004;-83
2021/09/22 10:28:59;;;;;;;7.00;2.60;;;;;;;26.01;47.73;101411.94;144992;578;6004;-85
2021/09/22 10:31:36;;;;;;;3.33;2.58;;;;;;;25.98;48.09;101393.37;144992;651;6002;-81
2021/09/22 10:34:04;;;;;;;3.28;2.65;;;;;;;25.96;48.11;101397.84;144992;860;6002;-89
2021/09/22 10:36:48;;;;;;;3.80;2.45;;;;;;;25.99;47.04;101383.59;144992;913;6002;-83
2021/09/22 10:39:46;;;;;;;3.87;2.20;;;;;;;25.99;47.57;101367.66;144992;577;6004;-85
2021/09/22 10:42:29;;;;;;;3.85;2.33;;;;;;;26.09;47.76;101369.19;144992;566;6004;-82
2021/09/22 10:45:18;;;;;;;3.70;2.47;;;;;;;26.09;46.98;101374.50;144992;893;6002;-82
2021/09/22 10:47:46;;;;;;;2.47;2.17;;;;;;;26.23;46.60;101366.16;144992;579;6002;-80
2021/09/22 10:50:34;;;;;;;5.50;3.83;;;;;;;26.08;46.89;101358.59;144992;569;6002;-83
2021/09/22 10:53:00;;;;;;;5.30;3.55;;;;;;;26.16;47.42;101360.13;144992;910;6005;-79
2021/09/22 10:55:28;;;;;;;4.70;2.58;;;;;;;26.19;47.20;101361.84;144992;568;6004;-82
2021/09/22 10:58:11;;;;;;;6.25;2.75;;;;;;;26.14;46.77;101361.97;144992;910;6004;-83
2021/09/22 11:00:40;;;;;;;2.85;2.50;;;;;;;25.97;47.37;101357.03;144992;563;6004;-83
2021/09/22 11:03:07;;;;;;;3.15;2.67;;;;;;;25.92;47.50;101366.03;144992;581;6004;-85
2021/09/22 11:05:36;;;;;;;4.37;2.70;;;;;;;26.02;47.50;101347.16;144992;737;6004;-80
2021/09/22 11:08:08;;;;;;;3.58;2.70;;;;;;;25.99;47.52;101349.88;144992;910;6004;-81
2021/09/22 11:10:47;;;;;;;6.03;2.80;;;;;;;25.95;47.50;101350.00;144992;671;6004;-81
2021/09/22 11:13:43;;;;;;;4.70;2.70;;;;;;;25.67;48.23;101354.16;144992;684;6004;-80
2021/09/22 11:16:13;;;;;;;5.05;3.55;;;;;;;25.51;48.39;101350.97;144992;581;6002;-78
2021/09/22 11:18:47;;;;;;;10.57;7.87;;;;;;;25.55;48.36;101335.84;144992;911;6002;-76
2021/09/22 11:21:18;;;;;;;3.90;2.65;;;;;;;25.57;48.94;101339.34;144992;565;6002;-80
2021/09/22 11:23:45;;;;;;;4.90;3.17;;;;;;;25.46;49.29;101328.09;144992;912;6002;-78
2021/09/22 11:26:12;;;;;;;5.37;3.15;;;;;;;25.52;49.09;101330.59;144992;583;6002;-81
2021/09/22 11:28:47;;;;;;;4.25;2.67;;;;;;;25.59;48.51;101326.03;144992;597;6002;-81
2021/09/22 11:31:14;;;;;;;6.22;2.70;;;;;;;25.45;49.29;101307.72;144992;804;6002;-83
2021/09/22 11:33:40;;;;;;;5.20;2.62;;;;;;;25.41;49.03;101319.34;144992;767;6002;-82
2021/09/22 11:36:09;;;;;;;5.65;2.95;;;;;;;25.48;49.62;101299.69;144992;563;6002;-80
2021/09/22 11:38:36;;;;;;;6.32;3.30;;;;;;;25.58;49.19;101303.88;144992;797;6002;-83
2021/09/22 11:41:05;;;;;;;4.75;3.60;;;;;;;25.66;48.39;101295.72;144992;735;6002;-77